Time;durP1;ratioP1;P1;durP2;ratioP2;P2;SDS_P1;SDS_P2;PMS_P1;PMS_P2;Temp;Humidity;BMP_temperature;BMP_pressure;BME280_temperature;BME280_humidity;BME280_pressure;Samples;Min_cycle;Max_cycle;Signal;HPM_P1;HPM_P2
2023/10/01 00:00:22;;;;;;;9.63;2.53;;;15.50;99.90;;;;;;4216184;28;20055;-81
2023/10/01 00:02:25;;;;;;;10.50;3.30;;;15.50;99.90;;;;;;4215109;28;20051;-81
2023/10/01 00:04:25;;;;;;;16.60;2.88;;;15.50;99.90;;;;;;4213760;28;20101;-81
2023/10/01 00:06:26;;;;;;;8.90;2.60;;;15.50;99.90;;;;;;4214582;28;20089;-81
2023/10/01 00:08:27;;;;;;;8.93;2.58;;;15.50;99.90;;;;;;4214306;28;20488;-81
2023/10/01 00:10:28;;;;;;;9.63;2.70;;;15.50;99.90;;;;;;4213995;28;20055;-81
2023/10/01 00:12:29;;;;;;;10.45;2.10;;;15.50;99.90;;;;;;4214238;28;20047;-81
2023/10/01 00:14:30;;;;;;;9.80;3.17;;;14.90;99.90;;;;;;4214315;28;20115;-81
2023/10/01 00:16:31;;;;;;;9.30;2.70;;;15.40;99.90;;;;;;4195931;28;20048;-81
2023/10/01 00:18:32;;;;;;;9.38;2.33;;;15.40;99.90;;;;;;4214301;28;20109;-81
2023/10/01 00:20:35;;;;;;;10.88;3.28;;;15.40;99.90;;;;;;4196579;28;20041;-81
2023/10/01 00:22:37;;;;;;;7.40;2.13;;;15.40;99.90;;;;;;4196132;28;20539;-81
2023/10/01 00:24:37;;;;;;;8.85;2.20;;;15.40;99.90;;;;;;4213851;28;20582;-81
2023/10/01 00:26:39;;;;;;;7.35;2.90;;;15.40;99.90;;;;;;4213544;28;20101;-81
2023/10/01 00:28:39;;;;;;;10.88;2.50;;;15.40;99.90;;;;;;4213805;28;20032;-81
2023/10/01 00:30:41;;;;;;;9.85;2.63;;;15.40;99.90;;;;;;4215168;28;20085;-81
2023/10/01 00:32:43;;;;;;;10.43;2.45;;;15.40;99.90;;;;;;4213740;28;20088;-80
2023/10/01 00:34:43;;;;;;;8.25;2.10;;;15.40;99.90;;;;;;4213278;28;20043;-81
2023/10/01 00:36:44;;;;;;;7.00;2.38;;;15.40;99.90;;;;;;4213845;28;20123;-81
2023/10/01 00:38:45;;;;;;;10.20;2.28;;;15.40;99.90;;;;;;4216494;28;20055;-80
2023/10/01 00:40:45;;;;;;;7.05;2.28;;;15.40;99.90;;;;;;4217003;28;20044;-80
2023/10/01 00:42:47;;;;;;;10.35;2.15;;;15.40;99.90;;;;;;4216970;28;20044;-81
2023/10/01 00:44:48;;;;;;;10.45;2.20;;;15.40;99.90;;;;;;4216749;28;20036;-81
2023/10/01 00:46:48;;;;;;;10.02;2.67;;;15.40;99.90;;;;;;4216953;28;20374;-81
2023/10/01 00:48:51;;;;;;;10.32;2.80;;;15.40;99.90;;;;;;4216567;28;20044;-81
2023/10/01 00:50:54;;;;;;;8.07;2.50;;;15.40;99.90;;;;;;4216317;28;20520;-81
2023/10/01 00:52:58;;;;;;;9.02;3.72;;;15.40;99.90;;;;;;4216845;28;20062;-81
2023/10/01 00:54:59;;;;;;;6.18;2.28;;;15.40;99.90;;;;;;4217121;28;20047;-81
2023/10/01 00:57:01;;;;;;;13.75;2.88;;;15.30;99.90;;;;;;4216393;28;20563;-81
2023/10/01 00:59:02;;;;;;;11.30;3.42;;;15.40;99.90;;;;;;4216737;28;20048;-81
2023/10/01 01:01:07;;;;;;;21.63;4.57;;;15.30;99.90;;;;;;4199141;28;20052;-81
2023/10/01 01:03:08;;;;;;;13.40;2.92;;;15.30;99.90;;;;;;4216399;28;20467;-81
2023/10/01 01:05:23;;;;;;;13.77;2.97;;;15.40;99.90;;;;;;4216488;28;20040;-81
2023/10/01 01:07:24;;;;;;;11.05;2.80;;;15.40;99.90;;;;;;4216012;28;20127;-80
2023/10/01 01:09:28;;;;;;;10.02;2.67;;;15.30;99.90;;;;;;4215749;28;20048;-81
2023/10/01 01:11:29;;;;;;;15.75;3.28;;;15.30;99.90;;;;;;4216368;28;20427;-81
2023/10/01 01:13:32;;;;;;;10.43;2.53;;;15.30;99.90;;;;;;4198384;28;20044;-81
2023/10/01 01:15:35;;;;;;;10.77;3.10;;;15.30;99.90;;;;;;4216282;28;20384;-81
2023/10/01 01:17:36;;;;;;;11.48;3.35;;;15.40;99.90;;;;;;4216410;28;20521;-82
2023/10/01 01:19:36;;;;;;;15.23;4.35;;;15.30;99.90;;;;;;4216479;28;20048;-81
2023/10/01 01:21:42;;;;;;;10.07;3.08;;;15.30;99.90;;;;;;4215994;28;20044;-81
2023/10/01 01:23:45;;;;;;;10.88;3.47;;;15.30;99.90;;;;;;4216208;28;20527;-80
2023/10/01 01:25:46;;;;;;;14.10;3.58;;;15.30;99.90;;;;;;4215643;28;20048;-80
2023/10/01 01:27:47;;;;;;;12.82;3.30;;;15.30;99.90;;;;;;4216191;28;20515;-80
2023/10/01 01:29:50;;;;;;;12.95;3.70;;;15.30;99.90;;;;;;4216071;28;20141;-80
2023/10/01 01:32:06;;;;;;;7.93;3.38;;;15.30;99.90;;;;;;4216225;28;20883;-80
2023/10/01 01:34:12;;;;;;;8.88;3.22;;;15.30;99.90;;;;;;4215807;28;20048;-81
2023/10/01 01:36:14;;;;;;;10.18;3.42;;;15.30;99.90;;;;;;4215889;28;20096;-81
2023/10/01 01:38:15;;;;;;;12.93;3.47;;;15.30;99.90;;;;;;4215551;28;20047;-81
2023/10/01 01:40:26;;;;;;;12.02;3.53;;;15.90;99.90;;;;;;4215626;28;20044;-81
2023/10/01 01:42:28;;;;;;;10.55;3.95;;;15.30;99.90;;;;;;4215950;28;20044;-81
2023/10/01 01:44:30;;;;;;;10.90;3.42;;;15.30;99.90;;;;;;4215844;28;20036;-81
2023/10/01 01:46:31;;;;;;;14.75;4.45;;;15.30;99.90;;;;;;4215788;28;20123;-80
2023/10/01 01:48:33;;;;;;;16.88;3.90;;;15.30;99.90;;;;;;4215244;28;20073;-80
2023/10/01 01:50:34;;;;;;;10.18;4.00;;;15.30;99.90;;;;;;4215707;28;20477;-80
2023/10/01 01:52:36;;;;;;;10.93;3.78;;;15.20;99.90;;;;;;4216264;28;20044;-81
2023/10/01 01:54:42;;;;;;;12.35;4.07;;;15.20;99.90;;;;;;4216380;28;20115;-81
2023/10/01 01:56:45;;;;;;;11.02;3.88;;;15.20;99.90;;;;;;4198229;28;20045;-81
2023/10/01 01:58:47;;;;;;;12.38;5.10;;;15.20;99.90;;;;;;4197594;28;20115;-81
2023/10/01 02:01:18;;;;;;;10.75;4.15;;;15.20;99.90;;;;;;4216308;28;20048;-80
2023/10/01 02:03:20;;;;;;;12.27;4.95;;;15.30;99.90;;;;;;4216283;28;20044;-81
2023/10/01 02:05:27;;;;;;;15.50;4.68;;;15.20;99.90;;;;;;4215822;28;20044;-80
2023/10/01 02:07:33;;;;;;;14.55;4.32;;;15.30;99.90;;;;;;4197973;28;20543;-81
2023/10/01 02:09:34;;;;;;;13.65;4.53;;;15.20;99.90;;;;;;4216050;28;20048;-80
2023/10/01 02:11:35;;;;;;;9.85;4.43;;;15.20;99.90;;;;;;4215798;28;20063;-81
2023/10/01 02:13:40;;;;;;;11.80;4.80;;;15.40;99.90;;;;;;4215315;28;20097;-81
2023/10/01 02:15:41;;;;;;;13.80;5.00;;;15.30;99.90;;;;;;4214825;28;20047;-80
2023/10/01 02:17:43;;;;;;;12.23;4.97;;;15.30;99.90;;;;;;4215411;28;20048;-81
2023/10/01 02:19:46;;;;;;;17.20;5.97;;;15.30;99.90;;;;;;4215262;28;20048;-81
2023/10/01 02:21:52;;;;;;;13.75;5.30;;;15.30;99.90;;;;;;4215214;28;20412;-81
2023/10/01 02:23:54;;;;;;;12.43;4.47;;;15.30;99.90;;;;;;4215186;28;20040;-81
2023/10/01 02:25:57;;;;;;;20.75;5.00;;;15.20;99.90;;;;;;4215181;28;20051;-81
2023/10/01 02:28:06;;;;;;;15.48;4.50;;;15.20;99.90;;;;;;4215173;28;20173;-81
2023/10/01 02:30:21;;;;;;;13.68;5.07;;;15.30;99.90;;;;;;4214989;28;20048;-80
2023/10/01 02:32:23;;;;;;;14.85;5.43;;;15.30;99.90;;;;;;4215773;28;20051;-80
2023/10/01 02:34:27;;;;;;;13.07;4.95;;;15.30;99.90;;;;;;4215977;28;20046;-80
2023/10/01 02:36:30;;;;;;;12.95;4.63;;;15.30;99.90;;;;;;4215319;28;20557;-80
2023/10/01 02:38:39;;;;;;;17.33;5.72;;;15.30;99.90;;;;;;4215289;28;20052;-80
2023/10/01 02:40:44;;;;;;;13.20;5.50;;;15.30;99.90;;;;;;4214653;28;20070;-80
2023/10/01 02:42:49;;;;;;;14.25;5.18;;;15.30;99.90;;;;;;4215080;28;20472;-80
2023/10/01 02:44:53;;;;;;;16.02;5.28;;;15.20;99.90;;;;;;4214713;28;20119;-81
2023/10/01 02:46:58;;;;;;;13.25;5.10;;;15.30;99.90;;;;;;4214928;28;20052;-81
2023/10/01 02:49:03;;;;;;;21.55;5.82;;;15.50;99.90;;;;;;4214850;28;20040;-81
2023/10/01 02:51:16;;;;;;;19.33;6.07;;;15.20;99.90;;;;;;4214299;28;20052;-81
2023/10/01 02:53:20;;;;;;;16.42;6.07;;;15.20;99.90;;;;;;4215047;28;20484;-81
2023/10/01 02:55:26;;;;;;;12.50;5.18;;;15.20;99.90;;;;;;4214718;28;20040;-81
2023/10/01 02:57:27;;;;;;;12.25;6.28;;;15.20;99.90;;;;;;4214840;28;20484;-80
2023/10/01 02:59:28;;;;;;;15.18;5.93;;;15.20;99.90;;;;;;4214717;28;20040;-81
2023/10/01 03:01:29;;;;;;;9.73;5.00;;;15.10;99.90;;;;;;4214144;28;20044;-81
2023/10/01 03:03:33;;;;;;;19.92;7.03;;;15.20;99.90;;;;;;4214693;28;20050;-81
2023/10/01 03:05:36;;;;;;;10.85;6.07;;;15.20;99.90;;;;;;4214608;28;20047;-81
2023/10/01 03:07:39;;;;;;;15.55;5.60;;;15.10;99.90;;;;;;4196714;28;20049;-81
2023/10/01 03:09:40;;;;;;;15.00;5.68;;;15.30;99.90;;;;;;4214663;28;20084;-81
2023/10/01 03:11:42;;;;;;;12.57;5.32;;;15.10;99.90;;;;;;4214260;28;20403;-81
2023/10/01 03:13:46;;;;;;;15.43;5.38;;;15.20;99.90;;;;;;4214590;28;20488;-81
2023/10/01 03:16:39;;;;;;;14.40;4.97;;;15.10;99.90;;;;;;4180032;28;20049;-80
2023/10/01 03:18:17;;;;;;;12.68;5.20;;;15.00;99.90;;;;;;4214112;28;20105;-81
2023/10/01 03:22:37;;;;;;;;;;;15.10;99.90;;;;;;4214460;28;20044;-81
2023/10/01 03:24:44;;;;;;;14.25;5.30;;;15.10;99.90;;;;;;4214413;28;19959;-82
2023/10/01 03:26:45;;;;;;;11.27;5.47;;;15.00;99.90;;;;;;4214385;28;20111;-81
2023/10/01 03:31:09;;;;;;;15.45;5.18;;;15.10;99.90;;;;;;4213975;28;20131;-81
2023/10/01 03:33:15;;;;;;;13.30;5.30;;;15.10;99.90;;;;;;4195916;28;20063;-81
2023/10/01 03:35:20;;;;;;;17.00;5.75;;;15.10;99.90;;;;;;4214359;28;20488;-81
2023/10/01 03:37:27;;;;;;;16.55;6.03;;;15.10;99.90;;;;;;4196258;28;20094;-81
2023/10/01 03:39:35;;;;;;;13.05;5.15;;;15.10;99.90;;;;;;4214217;28;20576;-82
2023/10/01 03:42:09;;;;;;;13.93;6.18;;;15.10;99.90;;;;;;4179538;28;20048;-80
2023/10/01 03:44:10;;;;;;;18.67;5.57;;;15.10;99.90;;;;;;4214043;28;20481;-80
2023/10/01 03:46:14;;;;;;;16.55;5.40;;;15.10;99.90;;;;;;4213812;28;20091;-81
2023/10/01 03:48:19;;;;;;;14.93;5.75;;;13.90;99.90;;;;;;4214218;28;20086;-81
2023/10/01 03:50:21;;;;;;;13.30;4.95;;;15.00;99.90;;;;;;4195851;28;20064;-81
2023/10/01 03:52:22;;;;;;;12.63;5.00;;;15.00;99.90;;;;;;4214022;28;20451;-81
2023/10/01 03:54:52;;;;;;;14.05;5.47;;;15.00;99.90;;;;;;4213857;28;20033;-81
2023/10/01 03:56:55;;;;;;;11.65;5.05;;;15.00;99.90;;;;;;4213692;28;20055;-81
2023/10/01 03:58:56;;;;;;;13.55;5.40;;;15.00;99.90;;;;;;4196315;28;20123;-80
2023/10/01 04:01:15;;;;;;;14.25;5.72;;;15.00;99.90;;;;;;4214010;28;20051;-80
2023/10/01 04:03:15;;;;;;;12.70;5.38;;;15.00;99.90;;;;;;4213694;28;20032;-80
2023/10/01 04:05:22;;;;;;;12.35;5.80;;;15.00;99.90;;;;;;4214047;28;20449;-80
2023/10/01 04:07:40;;;;;;;13.13;5.32;;;15.10;99.90;;;;;;4213992;28;20455;-80
2023/10/01 04:09:46;;;;;;;12.13;5.07;;;15.00;99.90;;;;;;4196119;28;20115;-80
2023/10/01 04:11:52;;;;;;;10.25;4.93;;;15.00;99.90;;;;;;4213809;28;20040;-80
2023/10/01 04:14:07;;;;;;;14.30;5.80;;;15.00;99.90;;;;;;4183339;28;20049;-80
2023/10/01 04:16:08;;;;;;;10.32;4.72;;;15.00;99.90;;;;;;4216963;28;20040;-80
2023/10/01 04:20:19;;;;;;;11.00;5.60;;;15.10;99.90;;;;;;4217090;28;20485;-80
2023/10/01 04:22:21;;;;;;;11.35;4.60;;;15.10;99.90;;;;;;4217196;28;20516;-81
2023/10/01 04:24:22;;;;;;;12.57;4.90;;;15.10;99.90;;;;;;4216749;28;20098;-80
2023/10/01 04:26:25;;;;;;;11.35;5.05;;;15.10;99.90;;;;;;4198779;28;20426;-81
2023/10/01 04:28:27;;;;;;;14.48;5.20;;;15.10;99.90;;;;;;4217038;28;20044;-81
2023/10/01 04:30:29;;;;;;;15.00;5.28;;;15.10;99.90;;;;;;4216981;28;20086;-81
2023/10/01 04:32:30;;;;;;;14.25;5.30;;;15.10;99.90;;;;;;4217071;28;20063;-81
2023/10/01 04:34:31;;;;;;;11.77;4.45;;;15.10;99.90;;;;;;4216784;28;20047;-81
2023/10/01 04:36:32;;;;;;;10.73;4.75;;;15.10;99.90;;;;;;4216982;28;20047;-80
2023/10/01 04:38:32;;;;;;;9.60;4.68;;;15.10;99.90;;;;;;4216495;28;20084;-80
2023/10/01 04:40:39;;;;;;;12.75;5.55;;;15.10;99.90;;;;;;4216873;28;20040;-81
2023/10/01 04:42:43;;;;;;;11.38;4.90;;;15.10;99.90;;;;;;4216845;28;20055;-80
2023/10/01 04:44:44;;;;;;;14.45;5.47;;;15.20;99.90;;;;;;4216851;28;20052;-81
2023/10/01 04:46:45;;;;;;;24.17;5.50;;;15.10;99.90;;;;;;4216817;28;20127;-80
2023/10/01 04:48:47;;;;;;;13.50;5.47;;;15.10;99.90;;;;;;4216770;28;20067;-81
2023/10/01 04:50:50;;;;;;;19.58;6.60;;;15.20;99.90;;;;;;4215764;28;20063;-81
2023/10/01 04:52:50;;;;;;;11.95;5.32;;;15.10;99.90;;;;;;4198494;28;20060;-81
2023/10/01 04:54:51;;;;;;;11.93;5.70;;;15.10;99.90;;;;;;4216376;28;20377;-81
2023/10/01 04:56:55;;;;;;;10.85;5.15;;;15.10;99.90;;;;;;4216646;28;20031;-81
2023/10/01 04:58:55;;;;;;;10.88;5.95;;;15.10;99.90;;;;;;4216647;28;20465;-80
2023/10/01 05:00:56;;;;;;;13.35;5.78;;;15.10;99.90;;;;;;4216564;28;20153;-81
2023/10/01 05:02:58;;;;;;;14.70;5.30;;;15.10;99.90;;;;;;4216130;28;20036;-81
2023/10/01 05:05:09;;;;;;;12.88;5.30;;;15.00;99.90;;;;;;4216453;28;20486;-81
2023/10/01 05:07:10;;;;;;;12.35;5.18;;;15.10;99.90;;;;;;4198349;28;20087;-81
2023/10/01 05:09:16;;;;;;;12.52;5.47;;;15.00;99.90;;;;;;4198339;28;20522;-81
2023/10/01 05:11:21;;;;;;;15.75;5.80;;;15.00;99.90;;;;;;4216366;28;20043;-81
2023/10/01 05:13:22;;;;;;;18.25;5.15;;;15.00;99.90;;;;;;4215537;28;20081;-81
2023/10/01 05:15:26;;;;;;;14.50;5.70;;;14.90;99.90;;;;;;4216291;28;20044;-81
2023/10/01 05:17:30;;;;;;;15.15;5.60;;;14.90;99.90;;;;;;4216301;28;20377;-81
2023/10/01 05:19:32;;;;;;;14.38;5.90;;;14.90;99.90;;;;;;4216345;28;20606;-81
2023/10/01 05:21:36;;;;;;;12.50;5.07;;;14.80;99.90;;;;;;4215770;28;20079;-81
2023/10/01 05:23:36;;;;;;;12.10;4.90;;;14.80;99.90;;;;;;4215988;28;20051;-81
2023/10/01 05:25:45;;;;;;;13.95;5.90;;;14.80;99.90;;;;;;4216177;28;20500;-81
2023/10/01 05:27:46;;;;;;;13.50;4.90;;;14.80;99.90;;;;;;4215980;28;20036;-81
2023/10/01 05:29:46;;;;;;;16.05;5.88;;;14.80;99.90;;;;;;4215330;28;20484;-80
2023/10/01 05:31:47;;;;;;;13.52;4.93;;;14.80;99.90;;;;;;4216098;28;20047;-80
2023/10/01 05:33:51;;;;;;;15.10;6.15;;;14.80;99.90;;;;;;4197950;28;20048;-80
2023/10/01 05:35:57;;;;;;;16.55;5.10;;;14.70;99.90;;;;;;4215723;28;20053;-81
2023/10/01 05:37:58;;;;;;;12.38;5.70;;;14.70;99.90;;;;;;4215779;28;20052;-80
2023/10/01 05:39:58;;;;;;;15.25;5.60;;;14.70;99.90;;;;;;4215679;28;20503;-80
2023/10/01 05:42:00;;;;;;;13.13;5.30;;;14.70;99.90;;;;;;4215868;28;20124;-80
2023/10/01 05:44:04;;;;;;;16.50;5.45;;;14.70;99.90;;;;;;4215524;28;20087;-80
2023/10/01 05:46:11;;;;;;;16.75;5.60;;;14.70;99.90;;;;;;4215817;28;20041;-80
2023/10/01 05:48:11;;;;;;;15.32;5.15;;;14.60;99.90;;;;;;4215819;28;20040;-80
2023/10/01 05:50:14;;;;;;;11.55;4.55;;;14.70;99.90;;;;;;4215134;28;20062;-80
2023/10/01 05:52:17;;;;;;;16.67;5.35;;;14.70;99.90;;;;;;4215565;28;20048;-80
2023/10/01 05:54:18;;;;;;;13.93;5.13;;;14.60;99.90;;;;;;4197489;28;20130;-80
2023/10/01 05:56:19;;;;;;;13.95;6.13;;;15.80;99.90;;;;;;4215603;28;20484;-80
2023/10/01 05:58:21;;;;;;;17.80;4.82;;;14.60;99.90;;;;;;4215063;28;20575;-80
2023/10/01 06:00:27;;;;;;;16.23;6.40;;;14.60;99.90;;;;;;4197527;28;20044;-80
2023/10/01 06:02:46;;;;;;;12.90;5.30;;;14.60;99.90;;;;;;4215409;28;20503;-80
2023/10/01 06:04:51;;;;;;;10.70;5.00;;;14.60;99.90;;;;;;4214965;28;20097;-80
2023/10/01 06:06:51;;;;;;;13.73;6.22;;;14.60;99.90;;;;;;4215265;28;20142;-80
2023/10/01 06:08:58;;;;;;;13.57;5.55;;;14.60;99.90;;;;;;4214961;28;20047;-80
2023/10/01 06:11:09;;;;;;;17.83;4.45;;;14.60;99.90;;;;;;4215406;28;20079;-80
2023/10/01 06:13:09;;;;;;;14.95;5.25;;;14.60;99.90;;;;;;4215355;28;20121;-80
2023/10/01 06:15:12;;;;;;;18.90;6.70;;;14.60;99.90;;;;;;4215331;28;20055;-80
2023/10/01 06:17:12;;;;;;;15.00;5.25;;;14.60;99.90;;;;;;4214856;28;20040;-80
2023/10/01 06:19:14;;;;;;;10.30;5.20;;;14.60;99.90;;;;;;4215279;28;20032;-80
2023/10/01 06:21:16;;;;;;;14.77;5.57;;;14.60;99.90;;;;;;4215241;28;20043;-80
2023/10/01 06:23:17;;;;;;;10.75;4.72;;;14.50;99.90;;;;;;4214902;28;20097;-80
2023/10/01 06:25:37;;;;;;;13.95;5.07;;;14.60;99.90;;;;;;4214899;28;20055;-80
2023/10/01 06:27:38;;;;;;;11.48;5.18;;;14.60;99.90;;;;;;4197400;28;20044;-80
2023/10/01 06:29:49;;;;;;;10.05;5.47;;;14.60;99.90;;;;;;4214693;28;20043;-80
2023/10/01 06:32:01;;;;;;;11.05;4.85;;;14.60;99.90;;;;;;4214474;28;20105;-80
2023/10/01 06:34:04;;;;;;;13.50;5.45;;;14.60;99.90;;;;;;4215010;28;20114;-80
2023/10/01 06:36:21;;;;;;;8.68;4.78;;;14.60;99.90;;;;;;4214433;28;20511;-80
2023/10/01 06:38:22;;;;;;;11.85;5.28;;;14.60;99.90;;;;;;4214929;28;20431;-80
2023/10/01 06:40:31;;;;;;;11.73;5.22;;;14.50;99.90;;;;;;4214827;28;20092;-80
2023/10/01 06:42:33;;;;;;;11.80;5.53;;;14.70;99.90;;;;;;4214642;28;20075;-80
2023/10/01 06:44:33;;;;;;;12.63;5.00;;;14.70;99.90;;;;;;4196148;28;20413;-80
2023/10/01 06:46:34;;;;;;;12.73;5.32;;;14.70;99.90;;;;;;4214813;28;20055;-80
2023/10/01 06:48:36;;;;;;;12.95;6.28;;;14.70;99.90;;;;;;4214599;28;20126;-80
2023/10/01 06:50:44;;;;;;;15.00;5.30;;;14.70;99.90;;;;;;4214110;28;20490;-80
2023/10/01 06:52:45;;;;;;;11.07;5.20;;;14.70;99.90;;;;;;4214505;28;20047;-80
2023/10/01 06:54:46;;;;;;;15.40;6.13;;;14.70;99.90;;;;;;4214553;28;20054;-80
2023/10/01 06:56:47;;;;;;;12.30;5.35;;;14.80;99.90;;;;;;4214606;28;20573;-80
2023/10/01 07:01:34;;;;;;;8.52;4.82;;;14.80;99.90;;;;;;4214619;28;20072;-80
2023/10/01 07:03:30;;;;;;;11.75;4.90;;;14.80;99.90;;;;;;4214010;28;20080;-80
2023/10/01 07:05:31;;;;;;;17.48;4.95;;;14.90;99.90;;;;;;4214586;28;20048;-80
2023/10/01 07:07:35;;;;;;;12.88;5.80;;;14.90;99.90;;;;;;4196741;28;20087;-80
2023/10/01 07:09:38;;;;;;;17.35;6.20;;;14.90;99.90;;;;;;4214586;28;20067;-81
2023/10/01 07:11:38;;;;;;;15.60;5.60;;;15.00;99.90;;;;;;4214075;28;20032;-80
2023/10/01 07:13:40;;;;;;;18.40;4.82;;;15.00;99.90;;;;;;4196609;28;20098;-80
2023/10/01 07:15:43;;;;;;;13.25;5.47;;;15.00;99.90;;;;;;4196628;28;20052;-80
2023/10/01 07:17:44;;;;;;;18.33;5.78;;;15.10;99.90;;;;;;4214433;28;20040;-80
2023/10/01 07:19:59;;;;;;;15.80;6.32;;;15.10;99.90;;;;;;4214208;28;20044;-80
2023/10/01 07:22:06;;;;;;;12.05;5.25;;;15.20;99.90;;;;;;4198095;28;20044;-80
2023/10/01 07:24:10;;;;;;;11.23;4.63;;;15.20;99.90;;;;;;4213814;28;20048;-80
2023/10/01 07:26:12;;;;;;;21.90;5.57;;;15.20;99.90;;;;;;4214593;28;20456;-80
2023/10/01 07:28:13;;;;;;;14.27;5.22;;;15.60;99.90;;;;;;4196360;28;20052;-81
2023/10/01 07:30:15;;;;;;;14.57;5.15;;;15.30;99.90;;;;;;4214117;28;20518;-80
2023/10/01 07:32:15;;;;;;;19.83;5.65;;;15.30;99.90;;;;;;4214039;28;20040;-80
2023/10/01 07:34:16;;;;;;;24.55;7.10;;;15.30;99.90;;;;;;4214025;28;20378;-80
2023/10/01 07:36:17;;;;;;;14.85;5.07;;;15.30;99.90;;;;;;4195731;28;20139;-80
2023/10/01 07:38:17;;;;;;;23.25;6.28;;;15.40;99.90;;;;;;4213878;28;20051;-79
2023/10/01 07:40:19;;;;;;;12.88;5.57;;;15.40;99.90;;;;;;4214186;28;20071;-81
2023/10/01 07:42:21;;;;;;;10.32;5.03;;;15.50;99.90;;;;;;4213959;28;20055;-82
2023/10/01 07:44:23;;;;;;;16.80;5.30;;;15.50;99.90;;;;;;4214065;28;20040;-81
2023/10/01 07:46:23;;;;;;;13.13;5.03;;;15.50;99.90;;;;;;4213394;28;20047;-81
2023/10/01 07:48:29;;;;;;;15.45;5.40;;;15.50;99.90;;;;;;4216595;28;20040;-81
2023/10/01 07:50:29;;;;;;;15.48;4.82;;;15.50;99.90;;;;;;4217136;28;20048;-81
2023/10/01 07:52:36;;;;;;;13.05;4.90;;;15.50;99.90;;;;;;4217563;28;20496;-81
2023/10/01 07:54:39;;;;;;;10.60;4.72;;;15.40;99.90;;;;;;4217349;28;20031;-81
2023/10/01 07:56:48;;;;;;;18.77;6.85;;;15.50;99.90;;;;;;4217631;28;20377;-81
2023/10/01 07:58:57;;;;;;;17.00;5.70;;;15.50;99.90;;;;;;4217542;28;20472;-81
2023/10/01 08:01:32;;;;;;;13.80;4.55;;;15.50;99.90;;;;;;4217605;28;20047;-79
2023/10/01 08:05:22;;;;;;;11.30;4.90;;;15.50;99.90;;;;;;4199091;28;20048;-81
2023/10/01 08:07:30;;;;;;;19.80;5.88;;;15.50;99.90;;;;;;4217347;28;20116;-81
2023/10/01 08:09:31;;;;;;;12.35;3.90;;;15.50;99.90;;;;;;4217017;28;20118;-81
2023/10/01 08:13:55;;;;;;;;;;;15.50;99.90;;;;;;4217503;28;20439;-81
2023/10/01 08:15:59;;;;;;;14.75;4.95;;;15.50;99.90;;;;;;4216936;28;20010;-81
2023/10/01 08:18:26;;;;;;;18.42;4.82;;;15.50;99.90;;;;;;4182577;28;20040;-81
2023/10/01 08:20:31;;;;;;;14.10;5.40;;;15.50;99.90;;;;;;4217085;28;20048;-81
2023/10/01 08:22:43;;;;;;;14.15;5.22;;;15.50;99.90;;;;;;4198848;28;20117;-81
2023/10/01 08:24:49;;;;;;;12.05;4.93;;;15.60;99.90;;;;;;4199035;28;20052;-81
2023/10/01 08:27:04;;;;;;;13.63;5.47;;;15.60;99.90;;;;;;4199102;28;20048;-81
2023/10/01 08:29:06;;;;;;;12.25;5.10;;;15.70;99.90;;;;;;4217091;28;20043;-81
2023/10/01 08:33:32;;;;;;;13.25;5.35;;;15.80;99.90;;;;;;4216953;28;20048;-79
2023/10/01 08:35:34;;;;;;;13.18;4.60;;;15.90;99.90;;;;;;4216891;28;20047;-80
2023/10/01 08:37:37;;;;;;;14.02;4.57;;;15.90;99.90;;;;;;4216770;28;20481;-79
2023/10/01 08:39:47;;;;;;;14.35;4.55;;;15.90;99.90;;;;;;4216458;28;20545;-79
2023/10/01 08:41:50;;;;;;;16.60;5.03;;;16.00;99.90;;;;;;4199028;28;20037;-79
2023/10/01 08:44:08;;;;;;;11.73;4.43;;;16.00;99.90;;;;;;4216634;28;20051;-80
2023/10/01 08:46:15;;;;;;;11.93;4.93;;;16.00;99.90;;;;;;4216639;28;20051;-79
2023/10/01 08:48:17;;;;;;;16.15;5.00;;;16.10;99.90;;;;;;4216390;28;20746;-80
2023/10/01 08:50:27;;;;;;;14.02;5.32;;;16.20;99.90;;;;;;4198638;28;20094;-80
2023/10/01 08:52:30;;;;;;;15.00;5.07;;;16.20;99.90;;;;;;4216664;28;20481;-80
2023/10/01 08:54:32;;;;;;;12.13;4.93;;;16.20;99.90;;;;;;4216675;28;20048;-79
2023/10/01 08:56:32;;;;;;;12.70;4.95;;;16.20;99.90;;;;;;4216725;28;20036;-79
2023/10/01 08:58:48;;;;;;;15.18;4.95;;;16.20;99.90;;;;;;4216034;28;20051;-80
2023/10/01 09:01:10;;;;;;;15.13;4.53;;;16.20;99.90;;;;;;4216549;28;20040;-80
2023/10/01 09:03:11;;;;;;;13.27;5.63;;;16.30;99.90;;;;;;4216473;28;20044;-80
2023/10/01 09:05:23;;;;;;;11.73;4.30;;;16.30;99.90;;;;;;4215909;28;20039;-80
2023/10/01 09:07:40;;;;;;;12.35;4.50;;;16.30;99.90;;;;;;4216401;28;20044;-80
2023/10/01 09:09:51;;;;;;;19.02;4.57;;;16.40;99.90;;;;;;4216252;28;20040;-80
2023/10/01 09:11:58;;;;;;;13.32;5.22;;;16.40;99.90;;;;;;4216485;28;20155;-80
2023/10/01 09:14:25;;;;;;;16.73;6.10;;;16.50;99.90;;;;;;4216466;28;20481;-80
2023/10/01 09:16:30;;;;;;;16.75;5.00;;;16.50;99.90;;;;;;4215636;28;20526;-80
2023/10/01 09:18:31;;;;;;;17.98;5.70;;;16.70;99.90;;;;;;4215933;28;20449;-80
2023/10/01 09:20:50;;;;;;;11.45;4.53;;;16.90;99.90;;;;;;4216262;28;20047;-80
2023/10/01 09:23:01;;;;;;;10.85;4.25;;;17.20;99.90;;;;;;4216167;28;20047;-80
2023/10/01 09:25:25;;;;;;;15.38;4.85;;;17.30;99.90;;;;;;4216196;28;20040;-80
2023/10/01 09:27:28;;;;;;;15.85;5.28;;;17.40;99.90;;;;;;4198116;28;20106;-80
2023/10/01 09:29:32;;;;;;;13.13;4.72;;;17.60;99.90;;;;;;4198175;28;20052;-80
2023/10/01 09:32:07;;;;;;;13.13;4.93;;;17.80;99.90;;;;;;4197287;28;20075;-80
2023/10/01 09:34:31;;;;;;;13.00;4.35;;;18.20;99.90;;;;;;4197636;28;20053;-80
2023/10/01 09:36:37;;;;;;;10.98;4.20;;;18.40;99.90;;;;;;4215893;28;20040;-80
2023/10/01 09:39:03;;;;;;;14.85;5.38;;;18.50;99.90;;;;;;4215740;28;20044;-80
2023/10/01 09:41:12;;;;;;;19.67;5.30;;;18.60;99.90;;;;;;4215492;28;20044;-80
2023/10/01 09:43:30;;;;;;;15.48;4.75;;;18.70;99.90;;;;;;4215852;28;20374;-80
2023/10/01 09:45:39;;;;;;;17.33;5.47;;;18.70;99.90;;;;;;4215790;28;20128;-81
2023/10/01 09:47:42;;;;;;;18.15;4.72;;;18.80;99.90;;;;;;4197567;28;20041;-80
2023/10/01 09:49:47;;;;;;;16.48;5.03;;;18.80;99.90;;;;;;4215514;28;20088;-80
2023/10/01 09:51:52;;;;;;;13.23;4.20;;;18.80;99.90;;;;;;4215459;28;20044;-81
2023/10/01 09:54:00;;;;;;;24.40;5.00;;;18.80;99.90;;;;;;4215256;28;20119;-82
2023/10/01 09:56:01;;;;;;;15.30;5.13;;;18.90;99.90;;;;;;4215634;28;20510;-80
2023/10/01 09:58:10;;;;;;;16.58;5.82;;;18.90;99.90;;;;;;4197947;28;20074;-80
2023/10/01 10:00:21;;;;;;;19.13;4.95;;;19.10;99.90;;;;;;4215999;28;20044;-80
2023/10/01 10:02:27;;;;;;;20.70;4.90;;;19.10;99.90;;;;;;4215515;28;20058;-80
2023/10/01 10:04:29;;;;;;;17.92;5.60;;;19.20;99.90;;;;;;4215357;28;20115;-80
2023/10/01 10:06:31;;;;;;;15.60;4.50;;;19.30;99.90;;;;;;4197335;28;20048;-80
2023/10/01 10:08:39;;;;;;;17.48;4.90;;;19.50;99.90;;;;;;4197699;28;20056;-80
2023/10/01 10:10:48;;;;;;;20.45;5.03;;;19.60;99.90;;;;;;4214055;28;20052;-80
2023/10/01 10:12:49;;;;;;;20.45;6.68;;;19.60;99.90;;;;;;4215409;28;20118;-80
2023/10/01 10:14:56;;;;;;;15.60;4.82;;;19.60;99.90;;;;;;4214990;28;20051;-80
2023/10/01 10:19:26;;;;;;;16.90;4.60;;;19.70;99.90;;;;;;4215184;28;20152;-81
2023/10/01 10:21:36;;;;;;;15.32;5.25;;;19.80;99.90;;;;;;4215241;28;20044;-81
2023/10/01 10:23:55;;;;;;;17.70;5.97;;;20.20;99.90;;;;;;4196936;28;20080;-81
2023/10/01 10:26:12;;;;;;;;;;;20.60;99.90;;;;;;4215298;28;20047;-81
2023/10/01 10:28:29;;;;;;;11.48;4.15;;;20.90;99.90;;;;;;4213842;28;19970;-81
2023/10/01 10:30:30;;;;;;;18.33;4.80;;;21.20;99.90;;;;;;4196842;28;20079;-81
2023/10/01 10:32:42;;;;;;;12.68;4.70;;;21.40;99.90;;;;;;4215071;28;20127;-81
2023/10/01 10:35:04;;;;;;;17.45;4.53;;;21.70;99.90;;;;;;4214740;28;20044;-81
2023/10/01 10:37:06;;;;;;;17.00;4.57;;;21.60;99.90;;;;;;4215073;28;20449;-80
2023/10/01 10:39:15;;;;;;;17.67;5.28;;;21.60;99.90;;;;;;4214553;28;20480;-81
2023/10/01 10:41:16;;;;;;;15.60;5.40;;;21.60;99.90;;;;;;4196680;28;20048;-81
2023/10/01 10:43:16;;;;;;;13.60;4.05;;;21.60;99.90;;;;;;4214942;28;20511;-81
2023/10/01 10:45:20;;;;;;;12.02;3.92;;;21.50;99.90;;;;;;4214841;28;20036;-80
2023/10/01 10:47:21;;;;;;;17.00;4.57;;;21.50;99.90;;;;;;4196851;28;20090;-81
2023/10/01 10:49:23;;;;;;;13.18;4.40;;;21.70;99.90;;;;;;4214156;28;20537;-81
2023/10/01 10:51:43;;;;;;;11.63;4.82;;;21.70;99.90;;;;;;4196413;28;20052;-81
2023/10/01 10:53:45;;;;;;;17.42;4.50;;;21.80;99.90;;;;;;4181432;28;20055;-81
2023/10/01 10:56:04;;;;;;;15.82;5.65;;;21.70;99.90;;;;;;4181074;28;20081;-81
2023/10/01 10:58:12;;;;;;;13.82;4.10;;;21.70;99.90;;;;;;4181285;28;20041;-80
2023/10/01 11:00:23;;;;;;;12.70;4.78;;;21.60;99.90;;;;;;4196600;28;20076;-81
2023/10/01 11:02:24;;;;;;;23.25;4.85;;;21.60;99.90;;;;;;4181150;28;20076;-80